Terminal Aerodrome Forecast
Issued by NWS Cleveland, OH

Home | Current Version | Previous Version | Graphics & Text | Print | Product List | Glossary Off
Versions: 1 2 3 4 5 6 7 8 9 10 11 12

893
FTUS41 KCLE 190531
TAFERI
TAF
KERI 190531Z 1906/2006 15004KT P6SM SCT250
     FM191200 15006KT P6SM BKN150
     FM191800 02008KT P6SM BKN100
     FM200000 13004KT P6SM BKN070=

USA.gov is the U.S. government's official web portal to all federal, state and local government web resources and services.